sensor_id;sensor_type;location;lat;lon;timestamp;P1;durP1;ratioP1;P2;durP2;ratioP2
74371;SDS011;62885;51.374;6.170;2022-10-16T00:01:56;4.82;;;2.45;;
74371;SDS011;62885;51.374;6.170;2022-10-16T00:04:24;4.32;;;2.10;;
74371;SDS011;62885;51.374;6.170;2022-10-16T00:06:50;3.45;;;2.03;;
74371;SDS011;62885;51.374;6.170;2022-10-16T00:09:15;5.40;;;2.05;;
74371;SDS011;62885;51.374;6.170;2022-10-16T00:11:40;7.40;;;2.33;;
74371;SDS011;62885;51.374;6.170;2022-10-16T00:14:07;6.82;;;2.40;;
74371;SDS011;62885;51.374;6.170;2022-10-16T00:16:37;5.65;;;2.70;;
74371;SDS011;62885;51.374;6.170;2022-10-16T00:19:03;5.43;;;2.67;;
74371;SDS011;62885;51.374;6.170;2022-10-16T00:21:30;6.32;;;2.20;;
74371;SDS011;62885;51.374;6.170;2022-10-16T00:23:59;6.28;;;2.38;;
74371;SDS011;62885;51.374;6.170;2022-10-16T00:26:27;5.88;;;2.75;;
74371;SDS011;62885;51.374;6.170;2022-10-16T00:28:54;5.05;;;2.63;;
74371;SDS011;62885;51.374;6.170;2022-10-16T00:31:21;5.30;;;2.20;;
74371;SDS011;62885;51.374;6.170;2022-10-16T00:33:47;5.80;;;2.25;;
74371;SDS011;62885;51.374;6.170;2022-10-16T00:36:14;5.93;;;2.10;;
74371;SDS011;62885;51.374;6.170;2022-10-16T00:38:42;4.68;;;2.53;;
74371;SDS011;62885;51.374;6.170;2022-10-16T00:41:10;4.43;;;2.75;;
74371;SDS011;62885;51.374;6.170;2022-10-16T00:43:41;5.28;;;2.17;;
74371;SDS011;62885;51.374;6.170;2022-10-16T00:48:35;3.83;;;1.80;;
74371;SDS011;62885;51.374;6.170;2022-10-16T00:51:01;4.57;;;2.30;;
74371;SDS011;62885;51.374;6.170;2022-10-16T00:53:26;3.47;;;1.80;;
74371;SDS011;62885;51.374;6.170;2022-10-16T00:55:52;5.30;;;2.00;;
74371;SDS011;62885;51.374;6.170;2022-10-16T00:58:18;4.65;;;1.83;;
74371;SDS011;62885;51.374;6.170;2022-10-16T01:00:44;3.55;;;1.90;;
74371;SDS011;62885;51.374;6.170;2022-10-16T01:03:23;3.35;;;1.70;;
74371;SDS011;62885;51.374;6.170;2022-10-16T01:05:55;3.05;;;1.65;;
74371;SDS011;62885;51.374;6.170;2022-10-16T01:14:10;3.17;;;1.83;;
74371;SDS011;62885;51.374;6.170;2022-10-16T01:16:45;4.47;;;1.60;;
74371;SDS011;62885;51.374;6.170;2022-10-16T01:19:36;5.43;;;1.70;;
74371;SDS011;62885;51.374;6.170;2022-10-16T01:22:14;2.05;;;1.38;;
74371;SDS011;62885;51.374;6.170;2022-10-16T01:24:43;3.97;;;1.70;;
74371;SDS011;62885;51.374;6.170;2022-10-16T01:27:21;3.97;;;1.60;;
74371;SDS011;62885;51.374;6.170;2022-10-16T01:32:34;2.60;;;1.58;;
74371;SDS011;62885;51.374;6.170;2022-10-16T01:35:05;3.00;;;1.33;;
74371;SDS011;62885;51.374;6.170;2022-10-16T01:40:05;4.70;;;1.80;;
74371;SDS011;62885;51.374;6.170;2022-10-16T01:42:37;3.65;;;1.70;;
74371;SDS011;62885;51.374;6.170;2022-10-16T01:45:07;5.00;;;1.60;;
74371;SDS011;62885;51.374;6.170;2022-10-16T01:47:36;6.28;;;1.80;;
74371;SDS011;62885;51.374;6.170;2022-10-16T01:50:03;1.75;;;1.20;;
74371;SDS011;62885;51.374;6.170;2022-10-16T01:52:30;5.30;;;1.35;;
74371;SDS011;62885;51.374;6.170;2022-10-16T01:54:58;3.38;;;1.40;;
74371;SDS011;62885;51.374;6.170;2022-10-16T01:57:27;4.22;;;1.80;;
74371;SDS011;62885;51.374;6.170;2022-10-16T01:59:55;2.72;;;1.30;;
74371;SDS011;62885;51.374;6.170;2022-10-16T02:02:26;5.20;;;1.30;;
74371;SDS011;62885;51.374;6.170;2022-10-16T02:04:55;3.97;;;1.30;;
74371;SDS011;62885;51.374;6.170;2022-10-16T02:07:26;3.33;;;1.50;;
74371;SDS011;62885;51.374;6.170;2022-10-16T02:09:52;4.63;;;1.75;;
74371;SDS011;62885;51.374;6.170;2022-10-16T02:14:51;4.43;;;1.33;;
74371;SDS011;62885;51.374;6.170;2022-10-16T02:17:18;2.88;;;1.50;;
74371;SDS011;62885;51.374;6.170;2022-10-16T02:19:44;3.40;;;1.52;;
74371;SDS011;62885;51.374;6.170;2022-10-16T02:22:15;4.72;;;1.65;;
74371;SDS011;62885;51.374;6.170;2022-10-16T02:24:52;2.22;;;1.27;;
74371;SDS011;62885;51.374;6.170;2022-10-16T02:30:21;3.28;;;1.20;;
74371;SDS011;62885;51.374;6.170;2022-10-16T02:32:48;3.85;;;1.45;;
74371;SDS011;62885;51.374;6.170;2022-10-16T02:35:15;4.68;;;1.67;;
74371;SDS011;62885;51.374;6.170;2022-10-16T02:37:43;4.53;;;1.30;;
74371;SDS011;62885;51.374;6.170;2022-10-16T02:40:10;1.60;;;1.05;;
74371;SDS011;62885;51.374;6.170;2022-10-16T02:42:37;2.35;;;1.25;;
74371;SDS011;62885;51.374;6.170;2022-10-16T02:45:04;10.88;;;1.30;;
74371;SDS011;62885;51.374;6.170;2022-10-16T02:47:30;2.85;;;1.23;;
74371;SDS011;62885;51.374;6.170;2022-10-16T02:49:56;2.00;;;1.07;;
74371;SDS011;62885;51.374;6.170;2022-10-16T02:52:21;4.22;;;1.33;;
74371;SDS011;62885;51.374;6.170;2022-10-16T02:54:46;4.72;;;1.42;;
74371;SDS011;62885;51.374;6.170;2022-10-16T02:57:12;5.32;;;1.40;;
74371;SDS011;62885;51.374;6.170;2022-10-16T02:59:37;2.75;;;1.25;;
74371;SDS011;62885;51.374;6.170;2022-10-16T03:02:03;2.53;;;1.23;;
74371;SDS011;62885;51.374;6.170;2022-10-16T03:04:28;2.80;;;1.30;;
74371;SDS011;62885;51.374;6.170;2022-10-16T03:06:53;3.97;;;1.17;;
74371;SDS011;62885;51.374;6.170;2022-10-16T03:09:19;4.30;;;1.42;;
74371;SDS011;62885;51.374;6.170;2022-10-16T03:11:44;2.90;;;1.27;;
74371;SDS011;62885;51.374;6.170;2022-10-16T03:14:09;3.63;;;1.30;;
74371;SDS011;62885;51.374;6.170;2022-10-16T03:16:35;3.33;;;1.33;;
74371;SDS011;62885;51.374;6.170;2022-10-16T03:19:00;2.70;;;1.08;;
74371;SDS011;62885;51.374;6.170;2022-10-16T03:21:26;2.05;;;1.27;;
74371;SDS011;62885;51.374;6.170;2022-10-16T03:23:51;4.13;;;1.20;;
74371;SDS011;62885;51.374;6.170;2022-10-16T03:26:16;1.98;;;1.08;;
74371;SDS011;62885;51.374;6.170;2022-10-16T03:28:42;1.98;;;1.20;;
74371;SDS011;62885;51.374;6.170;2022-10-16T03:31:07;4.20;;;1.15;;
74371;SDS011;62885;51.374;6.170;2022-10-16T03:33:33;1.85;;;1.23;;
74371;SDS011;62885;51.374;6.170;2022-10-16T03:35:58;2.20;;;1.20;;
74371;SDS011;62885;51.374;6.170;2022-10-16T03:38:24;3.83;;;1.15;;
74371;SDS011;62885;51.374;6.170;2022-10-16T03:40:49;2.92;;;1.13;;
74371;SDS011;62885;51.374;6.170;2022-10-16T03:43:14;2.17;;;1.10;;
74371;SDS011;62885;51.374;6.170;2022-10-16T03:45:40;2.30;;;1.15;;
74371;SDS011;62885;51.374;6.170;2022-10-16T03:48:06;3.30;;;1.35;;
74371;SDS011;62885;51.374;6.170;2022-10-16T03:50:31;3.47;;;1.27;;
74371;SDS011;62885;51.374;6.170;2022-10-16T03:52:56;4.97;;;1.20;;
74371;SDS011;62885;51.374;6.170;2022-10-16T03:55:22;4.28;;;1.30;;
74371;SDS011;62885;51.374;6.170;2022-10-16T03:57:47;2.92;;;1.20;;
74371;SDS011;62885;51.374;6.170;2022-10-16T04:00:12;1.92;;;1.08;;
74371;SDS011;62885;51.374;6.170;2022-10-16T04:02:38;3.53;;;1.50;;
74371;SDS011;62885;51.374;6.170;2022-10-16T04:05:04;2.67;;;1.17;;
74371;SDS011;62885;51.374;6.170;2022-10-16T04:07:29;7.35;;;1.60;;
74371;SDS011;62885;51.374;6.170;2022-10-16T04:09:55;3.58;;;1.27;;
74371;SDS011;62885;51.374;6.170;2022-10-16T04:12:20;2.17;;;1.30;;
74371;SDS011;62885;51.374;6.170;2022-10-16T04:14:45;3.40;;;1.77;;
74371;SDS011;62885;51.374;6.170;2022-10-16T04:17:11;4.57;;;1.23;;
74371;SDS011;62885;51.374;6.170;2022-10-16T04:19:36;5.60;;;2.45;;
74371;SDS011;62885;51.374;6.170;2022-10-16T04:22:02;2.47;;;1.35;;
74371;SDS011;62885;51.374;6.170;2022-10-16T04:24:27;2.72;;;1.08;;
74371;SDS011;62885;51.374;6.170;2022-10-16T04:26:53;3.72;;;1.75;;
74371;SDS011;62885;51.374;6.170;2022-10-16T04:29:18;3.50;;;1.30;;
74371;SDS011;62885;51.374;6.170;2022-10-16T04:31:43;2.55;;;1.45;;
74371;SDS011;62885;51.374;6.170;2022-10-16T04:34:09;2.78;;;1.38;;
74371;SDS011;62885;51.374;6.170;2022-10-16T04:36:34;3.42;;;1.50;;
74371;SDS011;62885;51.374;6.170;2022-10-16T04:38:59;2.13;;;1.20;;
74371;SDS011;62885;51.374;6.170;2022-10-16T04:41:25;3.53;;;1.60;;
74371;SDS011;62885;51.374;6.170;2022-10-16T04:43:50;1.45;;;1.13;;
74371;SDS011;62885;51.374;6.170;2022-10-16T04:46:15;2.88;;;1.20;;
74371;SDS011;62885;51.374;6.170;2022-10-16T04:48:41;3.13;;;1.20;;
74371;SDS011;62885;51.374;6.170;2022-10-16T04:51:06;1.92;;;1.20;;
74371;SDS011;62885;51.374;6.170;2022-10-16T04:53:31;2.70;;;1.40;;
74371;SDS011;62885;51.374;6.170;2022-10-16T04:55:58;5.30;;;1.27;;
74371;SDS011;62885;51.374;6.170;2022-10-16T04:58:23;2.90;;;1.30;;
74371;SDS011;62885;51.374;6.170;2022-10-16T05:00:48;2.38;;;1.20;;
74371;SDS011;62885;51.374;6.170;2022-10-16T05:03:14;2.33;;;1.35;;
74371;SDS011;62885;51.374;6.170;2022-10-16T05:05:43;4.72;;;1.10;;
74371;SDS011;62885;51.374;6.170;2022-10-16T05:08:10;2.25;;;1.45;;
74371;SDS011;62885;51.374;6.170;2022-10-16T05:10:36;3.80;;;1.38;;
74371;SDS011;62885;51.374;6.170;2022-10-16T05:13:02;4.05;;;1.38;;
74371;SDS011;62885;51.374;6.170;2022-10-16T05:15:28;2.50;;;1.58;;
74371;SDS011;62885;51.374;6.170;2022-10-16T05:17:54;4.18;;;1.95;;
74371;SDS011;62885;51.374;6.170;2022-10-16T05:20:20;3.63;;;1.58;;
74371;SDS011;62885;51.374;6.170;2022-10-16T05:22:46;4.63;;;1.30;;
74371;SDS011;62885;51.374;6.170;2022-10-16T05:25:11;3.88;;;1.40;;
74371;SDS011;62885;51.374;6.170;2022-10-16T05:27:37;4.72;;;1.35;;
74371;SDS011;62885;51.374;6.170;2022-10-16T05:30:02;5.93;;;1.77;;
74371;SDS011;62885;51.374;6.170;2022-10-16T05:32:28;4.10;;;1.38;;
74371;SDS011;62885;51.374;6.170;2022-10-16T05:34:53;2.88;;;1.42;;
74371;SDS011;62885;51.374;6.170;2022-10-16T05:37:19;2.65;;;1.35;;
74371;SDS011;62885;51.374;6.170;2022-10-16T05:39:44;5.15;;;1.42;;
74371;SDS011;62885;51.374;6.170;2022-10-16T05:42:09;4.30;;;1.55;;
74371;SDS011;62885;51.374;6.170;2022-10-16T05:44:34;7.50;;;1.90;;
74371;SDS011;62885;51.374;6.170;2022-10-16T05:47:00;3.03;;;1.55;;
74371;SDS011;62885;51.374;6.170;2022-10-16T05:49:25;3.30;;;1.45;;
74371;SDS011;62885;51.374;6.170;2022-10-16T05:51:52;2.90;;;1.40;;
74371;SDS011;62885;51.374;6.170;2022-10-16T05:54:17;4.43;;;2.05;;
74371;SDS011;62885;51.374;6.170;2022-10-16T05:56:43;2.65;;;1.48;;
74371;SDS011;62885;51.374;6.170;2022-10-16T05:59:08;5.13;;;1.92;;
74371;SDS011;62885;51.374;6.170;2022-10-16T06:01:34;2.97;;;1.83;;
74371;SDS011;62885;51.374;6.170;2022-10-16T06:04:00;5.68;;;2.20;;
74371;SDS011;62885;51.374;6.170;2022-10-16T06:06:26;3.83;;;1.88;;
74371;SDS011;62885;51.374;6.170;2022-10-16T06:08:53;5.13;;;2.00;;
74371;SDS011;62885;51.374;6.170;2022-10-16T06:11:21;3.20;;;1.98;;
74371;SDS011;62885;51.374;6.170;2022-10-16T06:13:49;4.20;;;1.73;;
74371;SDS011;62885;51.374;6.170;2022-10-16T06:16:15;3.97;;;1.83;;
74371;SDS011;62885;51.374;6.170;2022-10-16T06:18:40;3.20;;;1.83;;
74371;SDS011;62885;51.374;6.170;2022-10-16T06:21:13;4.70;;;1.92;;
74371;SDS011;62885;51.374;6.170;2022-10-16T06:23:41;5.55;;;1.98;;
74371;SDS011;62885;51.374;6.170;2022-10-16T06:26:07;7.07;;;1.83;;
74371;SDS011;62885;51.374;6.170;2022-10-16T06:28:34;5.68;;;2.25;;
74371;SDS011;62885;51.374;6.170;2022-10-16T06:31:00;3.17;;;1.80;;
74371;SDS011;62885;51.374;6.170;2022-10-16T06:33:26;3.35;;;2.03;;
74371;SDS011;62885;51.374;6.170;2022-10-16T06:35:52;5.32;;;2.10;;
74371;SDS011;62885;51.374;6.170;2022-10-16T06:38:17;3.05;;;1.73;;
74371;SDS011;62885;51.374;6.170;2022-10-16T06:40:42;4.97;;;1.83;;
74371;SDS011;62885;51.374;6.170;2022-10-16T06:43:08;6.45;;;2.38;;
74371;SDS011;62885;51.374;6.170;2022-10-16T06:45:34;5.32;;;2.42;;
74371;SDS011;62885;51.374;6.170;2022-10-16T06:47:59;5.40;;;2.30;;
74371;SDS011;62885;51.374;6.170;2022-10-16T06:50:24;4.40;;;1.67;;
74371;SDS011;62885;51.374;6.170;2022-10-16T06:52:49;4.25;;;2.25;;
74371;SDS011;62885;51.374;6.170;2022-10-16T06:55:15;3.50;;;1.80;;
74371;SDS011;62885;51.374;6.170;2022-10-16T06:57:42;4.03;;;1.90;;
74371;SDS011;62885;51.374;6.170;2022-10-16T07:00:08;7.22;;;1.80;;
74371;SDS011;62885;51.374;6.170;2022-10-16T07:02:33;4.70;;;1.98;;
74371;SDS011;62885;51.374;6.170;2022-10-16T07:04:59;2.85;;;1.70;;
74371;SDS011;62885;51.374;6.170;2022-10-16T07:07:24;3.67;;;1.80;;
74371;SDS011;62885;51.374;6.170;2022-10-16T07:09:51;5.38;;;2.38;;
74371;SDS011;62885;51.374;6.170;2022-10-16T07:12:16;4.43;;;1.90;;
74371;SDS011;62885;51.374;6.170;2022-10-16T07:14:42;4.70;;;2.20;;
74371;SDS011;62885;51.374;6.170;2022-10-16T07:17:07;4.82;;;2.65;;
74371;SDS011;62885;51.374;6.170;2022-10-16T07:19:33;4.32;;;2.20;;
74371;SDS011;62885;51.374;6.170;2022-10-16T07:21:58;7.03;;;2.80;;
74371;SDS011;62885;51.374;6.170;2022-10-16T07:24:24;5.28;;;1.92;;
74371;SDS011;62885;51.374;6.170;2022-10-16T07:26:49;4.47;;;2.33;;
74371;SDS011;62885;51.374;6.170;2022-10-16T07:29:16;6.93;;;2.40;;
74371;SDS011;62885;51.374;6.170;2022-10-16T07:31:44;5.78;;;2.67;;
74371;SDS011;62885;51.374;6.170;2022-10-16T07:34:10;4.07;;;2.22;;
74371;SDS011;62885;51.374;6.170;2022-10-16T07:36:36;5.82;;;2.40;;
74371;SDS011;62885;51.374;6.170;2022-10-16T07:39:02;6.07;;;2.80;;
74371;SDS011;62885;51.374;6.170;2022-10-16T07:41:27;6.15;;;2.40;;
74371;SDS011;62885;51.374;6.170;2022-10-16T07:43:53;6.47;;;2.97;;
74371;SDS011;62885;51.374;6.170;2022-10-16T07:46:20;5.88;;;2.28;;
74371;SDS011;62885;51.374;6.170;2022-10-16T07:48:47;6.82;;;2.60;;
74371;SDS011;62885;51.374;6.170;2022-10-16T07:51:23;5.13;;;2.60;;
74371;SDS011;62885;51.374;6.170;2022-10-16T07:53:50;3.47;;;2.13;;
74371;SDS011;62885;51.374;6.170;2022-10-16T07:56:17;4.47;;;2.17;;
74371;SDS011;62885;51.374;6.170;2022-10-16T07:58:43;3.83;;;1.83;;
74371;SDS011;62885;51.374;6.170;2022-10-16T08:01:09;3.80;;;1.80;;
74371;SDS011;62885;51.374;6.170;2022-10-16T08:03:36;3.85;;;2.10;;
74371;SDS011;62885;51.374;6.170;2022-10-16T08:06:02;7.28;;;2.30;;
74371;SDS011;62885;51.374;6.170;2022-10-16T08:08:29;6.88;;;1.80;;
74371;SDS011;62885;51.374;6.170;2022-10-16T08:10:54;5.95;;;2.10;;
74371;SDS011;62885;51.374;6.170;2022-10-16T08:13:20;3.92;;;2.28;;
74371;SDS011;62885;51.374;6.170;2022-10-16T08:15:46;3.90;;;2.20;;
74371;SDS011;62885;51.374;6.170;2022-10-16T08:18:12;4.10;;;1.92;;
74371;SDS011;62885;51.374;6.170;2022-10-16T08:20:39;4.55;;;1.85;;
74371;SDS011;62885;51.374;6.170;2022-10-16T08:23:05;4.47;;;2.38;;
74371;SDS011;62885;51.374;6.170;2022-10-16T08:25:33;4.55;;;1.83;;
74371;SDS011;62885;51.374;6.170;2022-10-16T08:27:59;6.15;;;2.10;;
74371;SDS011;62885;51.374;6.170;2022-10-16T08:30:25;5.28;;;1.80;;
74371;SDS011;62885;51.374;6.170;2022-10-16T08:32:50;3.63;;;1.63;;
74371;SDS011;62885;51.374;6.170;2022-10-16T08:35:16;6.30;;;2.05;;
74371;SDS011;62885;51.374;6.170;2022-10-16T08:37:41;5.13;;;1.90;;
74371;SDS011;62885;51.374;6.170;2022-10-16T08:40:16;4.00;;;1.60;;
74371;SDS011;62885;51.374;6.170;2022-10-16T08:50:41;5.97;;;1.60;;
74371;SDS011;62885;51.374;6.170;2022-10-16T08:53:09;2.75;;;1.50;;
74371;SDS011;62885;51.374;6.170;2022-10-16T08:55:45;3.92;;;1.65;;
74371;SDS011;62885;51.374;6.170;2022-10-16T08:58:15;4.65;;;1.85;;
74371;SDS011;62885;51.374;6.170;2022-10-16T09:00:42;3.72;;;1.45;;
74371;SDS011;62885;51.374;6.170;2022-10-16T09:06:03;3.75;;;1.30;;
74371;SDS011;62885;51.374;6.170;2022-10-16T09:22:37;2.22;;;1.00;;
74371;SDS011;62885;51.374;6.170;2022-10-16T09:25:10;3.25;;;1.33;;
74371;SDS011;62885;51.374;6.170;2022-10-16T09:30:11;4.43;;;1.85;;
74371;SDS011;62885;51.374;6.170;2022-10-16T09:32:42;3.78;;;1.10;;
74371;SDS011;62885;51.374;6.170;2022-10-16T09:35:11;5.03;;;1.50;;
74371;SDS011;62885;51.374;6.170;2022-10-16T09:37:42;2.65;;;1.17;;
74371;SDS011;62885;51.374;6.170;2022-10-16T09:40:13;2.83;;;0.95;;
74371;SDS011;62885;51.374;6.170;2022-10-16T09:42:49;4.53;;;1.10;;
74371;SDS011;62885;51.374;6.170;2022-10-16T09:45:23;1.83;;;1.10;;
74371;SDS011;62885;51.374;6.170;2022-10-16T09:47:48;3.00;;;1.95;;
74371;SDS011;62885;51.374;6.170;2022-10-16T09:52:51;4.65;;;1.20;;
74371;SDS011;62885;51.374;6.170;2022-10-16T09:55:27;4.38;;;1.50;;
74371;SDS011;62885;51.374;6.170;2022-10-16T09:57:53;3.05;;;1.15;;
74371;SDS011;62885;51.374;6.170;2022-10-16T10:00:20;4.20;;;1.00;;
74371;SDS011;62885;51.374;6.170;2022-10-16T10:02:46;5.88;;;1.13;;
74371;SDS011;62885;51.374;6.170;2022-10-16T10:05:22;1.83;;;0.80;;
74371;SDS011;62885;51.374;6.170;2022-10-16T10:07:59;6.10;;;1.80;;
74371;SDS011;62885;51.374;6.170;2022-10-16T10:10:32;5.20;;;2.03;;
74371;SDS011;62885;51.374;6.170;2022-10-16T10:13:01;4.07;;;1.80;;
74371;SDS011;62885;51.374;6.170;2022-10-16T10:15:27;3.00;;;1.10;;
74371;SDS011;62885;51.374;6.170;2022-10-16T10:17:59;4.75;;;1.77;;
74371;SDS011;62885;51.374;6.170;2022-10-16T10:20:31;3.95;;;1.25;;
74371;SDS011;62885;51.374;6.170;2022-10-16T10:22:59;3.05;;;1.20;;
74371;SDS011;62885;51.374;6.170;2022-10-16T10:36:25;2.55;;;1.20;;
74371;SDS011;62885;51.374;6.170;2022-10-16T10:41:38;2.72;;;0.82;;
74371;SDS011;62885;51.374;6.170;2022-10-16T10:46:51;1.58;;;0.75;;
74371;SDS011;62885;51.374;6.170;2022-10-16T10:52:13;5.57;;;1.13;;
74371;SDS011;62885;51.374;6.170;2022-10-16T11:06:04;4.07;;;0.80;;
74371;SDS011;62885;51.374;6.170;2022-10-16T11:08:36;4.85;;;1.55;;
74371;SDS011;62885;51.374;6.170;2022-10-16T11:11:17;2.92;;;1.10;;
74371;SDS011;62885;51.374;6.170;2022-10-16T11:16:37;1.13;;;0.63;;
74371;SDS011;62885;51.374;6.170;2022-10-16T11:19:11;2.15;;;0.80;;
74371;SDS011;62885;51.374;6.170;2022-10-16T11:22:30;2.50;;;1.00;;
74371;SDS011;62885;51.374;6.170;2022-10-16T11:27:17;2.70;;;1.00;;
74371;SDS011;62885;51.374;6.170;2022-10-16T11:29:59;5.50;;;0.93;;
74371;SDS011;62885;51.374;6.170;2022-10-16T11:32:40;2.03;;;0.80;;
74371;SDS011;62885;51.374;6.170;2022-10-16T11:35:53;4.22;;;1.33;;
74371;SDS011;62885;51.374;6.170;2022-10-16T11:37:59;3.30;;;1.00;;
74371;SDS011;62885;51.374;6.170;2022-10-16T11:40:29;2.97;;;1.00;;
74371;SDS011;62885;51.374;6.170;2022-10-16T11:45:51;3.35;;;1.13;;
74371;SDS011;62885;51.374;6.170;2022-10-16T11:51:31;2.25;;;1.02;;
74371;SDS011;62885;51.374;6.170;2022-10-16T11:56:35;4.15;;;1.10;;
74371;SDS011;62885;51.374;6.170;2022-10-16T12:09:17;6.53;;;1.25;;
74371;SDS011;62885;51.374;6.170;2022-10-16T12:11:47;4.90;;;1.25;;
74371;SDS011;62885;51.374;6.170;2022-10-16T12:19:20;7.18;;;2.42;;
74371;SDS011;62885;51.374;6.170;2022-10-16T12:21:49;7.50;;;1.80;;
74371;SDS011;62885;51.374;6.170;2022-10-16T12:24:35;7.93;;;1.60;;
74371;SDS011;62885;51.374;6.170;2022-10-16T12:27:04;4.32;;;1.35;;
74371;SDS011;62885;51.374;6.170;2022-10-16T12:29:40;2.88;;;1.10;;
74371;SDS011;62885;51.374;6.170;2022-10-16T12:34:56;3.55;;;1.42;;
74371;SDS011;62885;51.374;6.170;2022-10-16T12:37:27;5.45;;;1.58;;
74371;SDS011;62885;51.374;6.170;2022-10-16T12:39:57;3.60;;;1.35;;
74371;SDS011;62885;51.374;6.170;2022-10-16T12:42:31;2.78;;;1.48;;
74371;SDS011;62885;51.374;6.170;2022-10-16T12:44:58;1.60;;;1.00;;
74371;SDS011;62885;51.374;6.170;2022-10-16T12:49:56;3.63;;;1.17;;
74371;SDS011;62885;51.374;6.170;2022-10-16T12:55:03;3.92;;;1.05;;
74371;SDS011;62885;51.374;6.170;2022-10-16T13:00:37;2.30;;;1.20;;
74371;SDS011;62885;51.374;6.170;2022-10-16T13:08:51;2.38;;;0.98;;
74371;SDS011;62885;51.374;6.170;2022-10-16T13:23:15;2.97;;;1.35;;
74371;SDS011;62885;51.374;6.170;2022-10-16T13:28:42;6.78;;;1.70;;
74371;SDS011;62885;51.374;6.170;2022-10-16T13:31:13;3.65;;;1.42;;
74371;SDS011;62885;51.374;6.170;2022-10-16T13:33:45;6.93;;;2.05;;
74371;SDS011;62885;51.374;6.170;2022-10-16T13:36:34;4.38;;;1.40;;
74371;SDS011;62885;51.374;6.170;2022-10-16T13:39:26;6.72;;;1.45;;
74371;SDS011;62885;51.374;6.170;2022-10-16T13:42:06;3.63;;;1.45;;
74371;SDS011;62885;51.374;6.170;2022-10-16T13:44:44;2.72;;;0.90;;
74371;SDS011;62885;51.374;6.170;2022-10-16T13:47:22;2.85;;;1.30;;
74371;SDS011;62885;51.374;6.170;2022-10-16T13:50:05;1.98;;;0.90;;
74371;SDS011;62885;51.374;6.170;2022-10-16T13:52:36;5.22;;;1.48;;
74371;SDS011;62885;51.374;6.170;2022-10-16T13:55:03;8.88;;;2.13;;
74371;SDS011;62885;51.374;6.170;2022-10-16T13:57:49;4.95;;;1.92;;
74371;SDS011;62885;51.374;6.170;2022-10-16T14:00:22;3.55;;;1.58;;
74371;SDS011;62885;51.374;6.170;2022-10-16T14:02:50;3.80;;;1.63;;
74371;SDS011;62885;51.374;6.170;2022-10-16T14:05:22;4.18;;;1.40;;
74371;SDS011;62885;51.374;6.170;2022-10-16T14:07:49;4.57;;;1.30;;
74371;SDS011;62885;51.374;6.170;2022-10-16T14:10:25;6.15;;;1.33;;
74371;SDS011;62885;51.374;6.170;2022-10-16T14:15:55;6.57;;;1.70;;
74371;SDS011;62885;51.374;6.170;2022-10-16T14:18:24;5.18;;;1.50;;
74371;SDS011;62885;51.374;6.170;2022-10-16T14:20:52;3.65;;;1.75;;
74371;SDS011;62885;51.374;6.170;2022-10-16T14:23:31;3.45;;;1.48;;
74371;SDS011;62885;51.374;6.170;2022-10-16T14:26:06;3.65;;;1.50;;
74371;SDS011;62885;51.374;6.170;2022-10-16T14:28:38;5.32;;;1.92;;
74371;SDS011;62885;51.374;6.170;2022-10-16T14:33:52;3.10;;;1.52;;
74371;SDS011;62885;51.374;6.170;2022-10-16T14:36:18;1.92;;;1.10;;
74371;SDS011;62885;51.374;6.170;2022-10-16T14:41:30;4.95;;;1.30;;
74371;SDS011;62885;51.374;6.170;2022-10-16T14:44:00;3.75;;;1.20;;
74371;SDS011;62885;51.374;6.170;2022-10-16T14:46:30;4.28;;;1.50;;
74371;SDS011;62885;51.374;6.170;2022-10-16T14:49:13;2.88;;;1.45;;
74371;SDS011;62885;51.374;6.170;2022-10-16T14:51:43;4.57;;;1.40;;
74371;SDS011;62885;51.374;6.170;2022-10-16T14:54:10;5.28;;;1.40;;
74371;SDS011;62885;51.374;6.170;2022-10-16T14:56:44;2.47;;;1.20;;
74371;SDS011;62885;51.374;6.170;2022-10-16T15:01:51;2.70;;;0.90;;
74371;SDS011;62885;51.374;6.170;2022-10-16T15:04:17;2.13;;;0.93;;
74371;SDS011;62885;51.374;6.170;2022-10-16T15:06:43;3.63;;;1.30;;
74371;SDS011;62885;51.374;6.170;2022-10-16T15:09:09;7.03;;;1.70;;
74371;SDS011;62885;51.374;6.170;2022-10-16T15:11:35;4.50;;;1.70;;
74371;SDS011;62885;51.374;6.170;2022-10-16T15:14:01;7.65;;;2.70;;
74371;SDS011;62885;51.374;6.170;2022-10-16T15:16:28;6.13;;;2.38;;
74371;SDS011;62885;51.374;6.170;2022-10-16T15:18:54;6.97;;;2.55;;
74371;SDS011;62885;51.374;6.170;2022-10-16T15:21:37;7.45;;;2.50;;
74371;SDS011;62885;51.374;6.170;2022-10-16T15:24:02;5.43;;;2.17;;
74371;SDS011;62885;51.374;6.170;2022-10-16T15:26:33;3.10;;;1.17;;
74371;SDS011;62885;51.374;6.170;2022-10-16T15:28:59;5.97;;;1.87;;
74371;SDS011;62885;51.374;6.170;2022-10-16T15:31:24;6.38;;;2.00;;
74371;SDS011;62885;51.374;6.170;2022-10-16T15:33:50;2.88;;;1.58;;
74371;SDS011;62885;51.374;6.170;2022-10-16T15:36:28;7.15;;;1.50;;
74371;SDS011;62885;51.374;6.170;2022-10-16T15:38:59;7.00;;;1.45;;
74371;SDS011;62885;51.374;6.170;2022-10-16T15:41:25;3.92;;;1.65;;
74371;SDS011;62885;51.374;6.170;2022-10-16T15:43:50;4.35;;;1.55;;
74371;SDS011;62885;51.374;6.170;2022-10-16T15:46:20;2.95;;;1.50;;
74371;SDS011;62885;51.374;6.170;2022-10-16T15:48:47;7.15;;;1.98;;
74371;SDS011;62885;51.374;6.170;2022-10-16T15:51:13;4.47;;;1.77;;
74371;SDS011;62885;51.374;6.170;2022-10-16T15:53:39;12.63;;;5.75;;
74371;SDS011;62885;51.374;6.170;2022-10-16T15:56:06;4.93;;;2.08;;
74371;SDS011;62885;51.374;6.170;2022-10-16T15:58:33;3.28;;;1.70;;
74371;SDS011;62885;51.374;6.170;2022-10-16T16:00:59;2.95;;;1.40;;
74371;SDS011;62885;51.374;6.170;2022-10-16T16:03:26;5.93;;;2.20;;
74371;SDS011;62885;51.374;6.170;2022-10-16T16:05:53;3.58;;;1.40;;
74371;SDS011;62885;51.374;6.170;2022-10-16T16:08:18;5.70;;;1.85;;
74371;SDS011;62885;51.374;6.170;2022-10-16T16:10:44;4.50;;;2.05;;
74371;SDS011;62885;51.374;6.170;2022-10-16T16:13:09;7.10;;;1.70;;
74371;SDS011;62885;51.374;6.170;2022-10-16T16:15:38;4.18;;;1.70;;
74371;SDS011;62885;51.374;6.170;2022-10-16T16:18:03;3.30;;;1.70;;
74371;SDS011;62885;51.374;6.170;2022-10-16T16:20:30;5.30;;;1.95;;
74371;SDS011;62885;51.374;6.170;2022-10-16T16:22:56;5.30;;;1.67;;
74371;SDS011;62885;51.374;6.170;2022-10-16T16:25:21;3.33;;;1.45;;
74371;SDS011;62885;51.374;6.170;2022-10-16T16:27:47;5.53;;;1.83;;
74371;SDS011;62885;51.374;6.170;2022-10-16T16:30:12;3.92;;;1.42;;
74371;SDS011;62885;51.374;6.170;2022-10-16T16:32:38;5.30;;;2.00;;
74371;SDS011;62885;51.374;6.170;2022-10-16T16:35:03;8.40;;;2.55;;
74371;SDS011;62885;51.374;6.170;2022-10-16T16:37:29;7.32;;;3.17;;
74371;SDS011;62885;51.374;6.170;2022-10-16T16:39:55;6.63;;;2.60;;
74371;SDS011;62885;51.374;6.170;2022-10-16T16:42:23;6.85;;;2.30;;
74371;SDS011;62885;51.374;6.170;2022-10-16T16:44:49;5.50;;;2.05;;
74371;SDS011;62885;51.374;6.170;2022-10-16T16:47:15;6.25;;;2.30;;
74371;SDS011;62885;51.374;6.170;2022-10-16T16:49:40;3.85;;;2.53;;
74371;SDS011;62885;51.374;6.170;2022-10-16T16:52:06;5.03;;;2.17;;
74371;SDS011;62885;51.374;6.170;2022-10-16T16:54:31;7.65;;;2.00;;
74371;SDS011;62885;51.374;6.170;2022-10-16T16:56:57;6.50;;;2.88;;
74371;SDS011;62885;51.374;6.170;2022-10-16T16:59:22;3.72;;;1.95;;
74371;SDS011;62885;51.374;6.170;2022-10-16T17:01:48;4.47;;;2.08;;
74371;SDS011;62885;51.374;6.170;2022-10-16T17:04:14;5.32;;;2.28;;
74371;SDS011;62885;51.374;6.170;2022-10-16T17:06:43;5.75;;;2.58;;
74371;SDS011;62885;51.374;6.170;2022-10-16T17:09:09;5.20;;;2.20;;
74371;SDS011;62885;51.374;6.170;2022-10-16T17:11:38;6.50;;;2.20;;
74371;SDS011;62885;51.374;6.170;2022-10-16T17:14:04;5.00;;;2.05;;
74371;SDS011;62885;51.374;6.170;2022-10-16T17:16:31;4.63;;;2.15;;
74371;SDS011;62885;51.374;6.170;2022-10-16T17:19:01;5.78;;;2.40;;
74371;SDS011;62885;51.374;6.170;2022-10-16T17:21:30;4.47;;;2.10;;
74371;SDS011;62885;51.374;6.170;2022-10-16T17:23:57;6.13;;;2.28;;
74371;SDS011;62885;51.374;6.170;2022-10-16T17:26:22;6.03;;;2.40;;